Metar z pełnej godziny Komunikat METAR ze strony awiacja.imgw.pl Metar G00 EPKT METAR EPKT 200400Z 27009KT 9999 SCT027 03/01 Q1017 =